sensor_id;sensor_type;location;lat;lon;timestamp;temperature;humidity
18361;SHT31;9308;48.550;9.108;2023-06-19T00:01:55;23.71;54.69
18361;SHT31;9308;48.550;9.108;2023-06-19T00:04:20;23.67;54.98
18361;SHT31;9308;48.550;9.108;2023-06-19T00:06:46;23.67;54.85
18361;SHT31;9308;48.550;9.108;2023-06-19T00:09:11;23.50;55.71
18361;SHT31;9308;48.550;9.108;2023-06-19T00:11:36;23.35;55.54
18361;SHT31;9308;48.550;9.108;2023-06-19T00:14:02;23.22;55.82
18361;SHT31;9308;48.550;9.108;2023-06-19T00:16:28;23.33;55.39
18361;SHT31;9308;48.550;9.108;2023-06-19T00:18:53;23.39;54.81
18361;SHT31;9308;48.550;9.108;2023-06-19T00:21:25;23.26;55.14
18361;SHT31;9308;48.550;9.108;2023-06-19T00:23:53;23.16;55.31
18361;SHT31;9308;48.550;9.108;2023-06-19T00:26:20;23.23;55.43
18361;SHT31;9308;48.550;9.108;2023-06-19T00:28:51;23.16;55.13
18361;SHT31;9308;48.550;9.108;2023-06-19T00:31:18;23.18;55.34
18361;SHT31;9308;48.550;9.108;2023-06-19T00:33:45;23.09;55.28
18361;SHT31;9308;48.550;9.108;2023-06-19T00:36:15;23.23;55.12
18361;SHT31;9308;48.550;9.108;2023-06-19T00:38:41;23.12;55.36
18361;SHT31;9308;48.550;9.108;2023-06-19T00:41:07;23.06;55.90
18361;SHT31;9308;48.550;9.108;2023-06-19T00:43:33;23.16;56.39
18361;SHT31;9308;48.550;9.108;2023-06-19T00:45:59;22.95;56.14
18361;SHT31;9308;48.550;9.108;2023-06-19T00:48:29;22.95;56.02
18361;SHT31;9308;48.550;9.108;2023-06-19T00:50:56;23.01;56.97
18361;SHT31;9308;48.550;9.108;2023-06-19T00:53:22;22.92;56.34
18361;SHT31;9308;48.550;9.108;2023-06-19T00:55:48;23.01;56.87
18361;SHT31;9308;48.550;9.108;2023-06-19T00:58:14;23.15;56.49
18361;SHT31;9308;48.550;9.108;2023-06-19T01:00:40;23.12;55.91
18361;SHT31;9308;48.550;9.108;2023-06-19T01:03:06;23.20;55.38
18361;SHT31;9308;48.550;9.108;2023-06-19T01:05:32;23.23;55.70
18361;SHT31;9308;48.550;9.108;2023-06-19T01:08:14;23.18;56.29
18361;SHT31;9308;48.550;9.108;2023-06-19T01:10:47;23.20;56.58
18361;SHT31;9308;48.550;9.108;2023-06-19T01:13:50;23.22;56.54
18361;SHT31;9308;48.550;9.108;2023-06-19T01:16:20;23.16;56.56
18361;SHT31;9308;48.550;9.108;2023-06-19T01:18:46;23.15;57.40
18361;SHT31;9308;48.550;9.108;2023-06-19T01:21:16;23.11;56.59
18361;SHT31;9308;48.550;9.108;2023-06-19T01:23:42;23.02;55.07
18361;SHT31;9308;48.550;9.108;2023-06-19T01:26:08;22.96;55.59
18361;SHT31;9308;48.550;9.108;2023-06-19T01:28:35;23.02;54.77
18361;SHT31;9308;48.550;9.108;2023-06-19T01:31:04;22.85;54.80
18361;SHT31;9308;48.550;9.108;2023-06-19T01:33:32;22.75;55.41
18361;SHT31;9308;48.550;9.108;2023-06-19T01:35:58;22.82;54.88
18361;SHT31;9308;48.550;9.108;2023-06-19T01:38:25;22.90;55.11
18361;SHT31;9308;48.550;9.108;2023-06-19T01:40:53;22.75;54.74
18361;SHT31;9308;48.550;9.108;2023-06-19T01:43:20;22.57;54.98
18361;SHT31;9308;48.550;9.108;2023-06-19T01:45:46;22.59;55.25
18361;SHT31;9308;48.550;9.108;2023-06-19T01:48:13;22.54;55.70
18361;SHT31;9308;48.550;9.108;2023-06-19T01:50:39;22.39;56.15
18361;SHT31;9308;48.550;9.108;2023-06-19T01:53:05;22.60;56.15
18361;SHT31;9308;48.550;9.108;2023-06-19T01:55:30;22.40;56.56
18361;SHT31;9308;48.550;9.108;2023-06-19T01:57:55;22.46;56.51
18361;SHT31;9308;48.550;9.108;2023-06-19T02:00:21;22.63;56.26
18361;SHT31;9308;48.550;9.108;2023-06-19T02:02:47;22.70;55.85
18361;SHT31;9308;48.550;9.108;2023-06-19T02:05:13;22.67;56.35
18361;SHT31;9308;48.550;9.108;2023-06-19T02:07:39;22.57;56.18
18361;SHT31;9308;48.550;9.108;2023-06-19T02:10:05;22.56;56.47
18361;SHT31;9308;48.550;9.108;2023-06-19T02:12:31;22.46;56.29
18361;SHT31;9308;48.550;9.108;2023-06-19T02:14:56;22.47;56.91
18361;SHT31;9308;48.550;9.108;2023-06-19T02:17:22;22.56;56.22
18361;SHT31;9308;48.550;9.108;2023-06-19T02:19:47;22.56;56.09
18361;SHT31;9308;48.550;9.108;2023-06-19T02:22:13;22.61;56.22
18361;SHT31;9308;48.550;9.108;2023-06-19T02:24:38;22.84;56.84
18361;SHT31;9308;48.550;9.108;2023-06-19T02:27:05;22.84;57.16
18361;SHT31;9308;48.550;9.108;2023-06-19T02:29:30;22.68;56.35
18361;SHT31;9308;48.550;9.108;2023-06-19T02:31:59;22.81;56.45
18361;SHT31;9308;48.550;9.108;2023-06-19T02:34:24;22.71;56.83
18361;SHT31;9308;48.550;9.108;2023-06-19T02:36:50;22.85;56.69
18361;SHT31;9308;48.550;9.108;2023-06-19T02:39:15;22.96;56.09
18361;SHT31;9308;48.550;9.108;2023-06-19T02:41:41;22.94;56.28
18361;SHT31;9308;48.550;9.108;2023-06-19T02:44:11;22.75;56.94
18361;SHT31;9308;48.550;9.108;2023-06-19T02:46:37;22.95;56.10
18361;SHT31;9308;48.550;9.108;2023-06-19T02:49:03;22.88;56.69
18361;SHT31;9308;48.550;9.108;2023-06-19T02:51:28;22.77;56.66
18361;SHT31;9308;48.550;9.108;2023-06-19T02:53:53;22.74;57.85
18361;SHT31;9308;48.550;9.108;2023-06-19T02:56:19;22.78;58.15
18361;SHT31;9308;48.550;9.108;2023-06-19T02:58:44;22.78;57.88
18361;SHT31;9308;48.550;9.108;2023-06-19T03:01:10;22.90;57.00
18361;SHT31;9308;48.550;9.108;2023-06-19T03:03:35;22.82;58.05
18361;SHT31;9308;48.550;9.108;2023-06-19T03:06:07;22.71;58.61
18361;SHT31;9308;48.550;9.108;2023-06-19T03:08:34;22.77;57.13
18361;SHT31;9308;48.550;9.108;2023-06-19T03:10:59;22.64;57.20
18361;SHT31;9308;48.550;9.108;2023-06-19T03:13:25;22.68;57.98
18361;SHT31;9308;48.550;9.108;2023-06-19T03:15:50;22.54;57.69
18361;SHT31;9308;48.550;9.108;2023-06-19T03:18:16;22.53;57.94
18361;SHT31;9308;48.550;9.108;2023-06-19T03:20:41;22.65;57.42
18361;SHT31;9308;48.550;9.108;2023-06-19T03:23:07;22.63;57.86
18361;SHT31;9308;48.550;9.108;2023-06-19T03:25:32;22.54;57.85
18361;SHT31;9308;48.550;9.108;2023-06-19T03:28:01;22.40;58.17
18361;SHT31;9308;48.550;9.108;2023-06-19T03:30:27;22.44;58.23
18361;SHT31;9308;48.550;9.108;2023-06-19T03:32:53;22.44;57.87
18361;SHT31;9308;48.550;9.108;2023-06-19T03:35:18;22.46;59.16
18361;SHT31;9308;48.550;9.108;2023-06-19T03:37:43;22.65;58.01
18361;SHT31;9308;48.550;9.108;2023-06-19T03:40:09;22.60;57.50
18361;SHT31;9308;48.550;9.108;2023-06-19T03:42:39;22.80;57.78
18361;SHT31;9308;48.550;9.108;2023-06-19T03:45:05;22.85;57.68
18361;SHT31;9308;48.550;9.108;2023-06-19T03:47:30;22.63;57.87
18361;SHT31;9308;48.550;9.108;2023-06-19T03:49:56;22.70;58.81
18361;SHT31;9308;48.550;9.108;2023-06-19T03:52:21;22.44;59.55
18361;SHT31;9308;48.550;9.108;2023-06-19T03:54:47;22.46;58.30
18361;SHT31;9308;48.550;9.108;2023-06-19T03:57:12;22.53;57.97
18361;SHT31;9308;48.550;9.108;2023-06-19T03:59:38;22.44;58.11
18361;SHT31;9308;48.550;9.108;2023-06-19T04:02:03;22.17;58.57
18361;SHT31;9308;48.550;9.108;2023-06-19T04:04:29;22.02;58.89
18361;SHT31;9308;48.550;9.108;2023-06-19T04:06:54;22.06;59.07
18361;SHT31;9308;48.550;9.108;2023-06-19T04:09:20;22.13;59.89
18361;SHT31;9308;48.550;9.108;2023-06-19T04:11:45;22.02;60.82
18361;SHT31;9308;48.550;9.108;2023-06-19T04:14:11;22.17;62.29
18361;SHT31;9308;48.550;9.108;2023-06-19T04:16:36;22.15;61.89
18361;SHT31;9308;48.550;9.108;2023-06-19T04:19:02;22.16;62.59
18361;SHT31;9308;48.550;9.108;2023-06-19T04:21:27;22.22;62.10
18361;SHT31;9308;48.550;9.108;2023-06-19T04:23:53;22.30;62.17
18361;SHT31;9308;48.550;9.108;2023-06-19T04:26:18;22.04;62.51
18361;SHT31;9308;48.550;9.108;2023-06-19T04:28:44;22.13;61.59
18361;SHT31;9308;48.550;9.108;2023-06-19T04:31:09;22.23;61.93
18361;SHT31;9308;48.550;9.108;2023-06-19T04:33:35;22.17;62.52
18361;SHT31;9308;48.550;9.108;2023-06-19T04:36:00;22.30;61.81
18361;SHT31;9308;48.550;9.108;2023-06-19T04:38:26;22.26;61.21
18361;SHT31;9308;48.550;9.108;2023-06-19T04:40:51;22.26;61.45
18361;SHT31;9308;48.550;9.108;2023-06-19T04:43:17;22.43;61.04
18361;SHT31;9308;48.550;9.108;2023-06-19T04:45:43;22.59;61.17
18361;SHT31;9308;48.550;9.108;2023-06-19T04:48:08;22.59;60.08
18361;SHT31;9308;48.550;9.108;2023-06-19T04:50:34;22.81;60.37
18361;SHT31;9308;48.550;9.108;2023-06-19T04:52:59;22.75;59.57
18361;SHT31;9308;48.550;9.108;2023-06-19T04:55:25;22.91;60.27
18361;SHT31;9308;48.550;9.108;2023-06-19T04:57:53;22.57;60.07
18361;SHT31;9308;48.550;9.108;2023-06-19T05:00:19;22.63;60.00
18361;SHT31;9308;48.550;9.108;2023-06-19T05:02:45;22.49;59.87
18361;SHT31;9308;48.550;9.108;2023-06-19T05:05:13;22.57;59.84
18361;SHT31;9308;48.550;9.108;2023-06-19T05:07:39;22.53;60.58
18361;SHT31;9308;48.550;9.108;2023-06-19T05:10:05;22.75;60.51
18361;SHT31;9308;48.550;9.108;2023-06-19T05:12:30;22.52;60.12
18361;SHT31;9308;48.550;9.108;2023-06-19T05:14:56;22.65;60.35
18361;SHT31;9308;48.550;9.108;2023-06-19T05:17:21;22.73;60.95
18361;SHT31;9308;48.550;9.108;2023-06-19T05:19:47;22.82;60.06
18361;SHT31;9308;48.550;9.108;2023-06-19T05:22:13;22.90;59.89
18361;SHT31;9308;48.550;9.108;2023-06-19T05:24:38;23.18;59.63
18361;SHT31;9308;48.550;9.108;2023-06-19T05:27:04;23.05;59.96
18361;SHT31;9308;48.550;9.108;2023-06-19T05:29:30;23.12;59.69
18361;SHT31;9308;48.550;9.108;2023-06-19T05:31:56;22.87;60.11
18361;SHT31;9308;48.550;9.108;2023-06-19T05:34:21;22.94;59.95
18361;SHT31;9308;48.550;9.108;2023-06-19T05:36:48;22.98;59.98
18361;SHT31;9308;48.550;9.108;2023-06-19T05:39:13;22.84;60.03
18361;SHT31;9308;48.550;9.108;2023-06-19T05:41:39;23.11;59.73
18361;SHT31;9308;48.550;9.108;2023-06-19T05:44:04;23.23;59.31
18361;SHT31;9308;48.550;9.108;2023-06-19T05:46:30;23.30;59.37
18361;SHT31;9308;48.550;9.108;2023-06-19T05:48:55;23.51;59.37
18361;SHT31;9308;48.550;9.108;2023-06-19T05:51:21;23.50;59.76
18361;SHT31;9308;48.550;9.108;2023-06-19T05:53:46;23.42;60.00
18361;SHT31;9308;48.550;9.108;2023-06-19T05:56:12;23.61;59.56
18361;SHT31;9308;48.550;9.108;2023-06-19T05:58:37;23.57;59.75
18361;SHT31;9308;48.550;9.108;2023-06-19T06:01:03;23.56;59.78
18361;SHT31;9308;48.550;9.108;2023-06-19T06:03:30;23.70;58.86
18361;SHT31;9308;48.550;9.108;2023-06-19T06:05:57;23.60;59.10
18361;SHT31;9308;48.550;9.108;2023-06-19T06:08:31;23.91;58.66
18361;SHT31;9308;48.550;9.108;2023-06-19T06:10:56;23.85;58.65
18361;SHT31;9308;48.550;9.108;2023-06-19T06:13:22;23.47;59.58
18361;SHT31;9308;48.550;9.108;2023-06-19T06:15:48;23.90;58.98
18361;SHT31;9308;48.550;9.108;2023-06-19T06:18:13;23.73;59.55
18361;SHT31;9308;48.550;9.108;2023-06-19T06:20:39;23.95;58.94
18361;SHT31;9308;48.550;9.108;2023-06-19T06:23:04;24.12;59.16
18361;SHT31;9308;48.550;9.108;2023-06-19T06:25:30;24.12;58.09
18361;SHT31;9308;48.550;9.108;2023-06-19T06:27:55;23.94;58.44
18361;SHT31;9308;48.550;9.108;2023-06-19T06:30:21;24.08;58.43
18361;SHT31;9308;48.550;9.108;2023-06-19T06:32:46;24.04;58.22
18361;SHT31;9308;48.550;9.108;2023-06-19T06:35:12;23.97;58.42
18361;SHT31;9308;48.550;9.108;2023-06-19T06:37:37;23.77;58.00
18361;SHT31;9308;48.550;9.108;2023-06-19T06:40:04;23.84;58.75
18361;SHT31;9308;48.550;9.108;2023-06-19T06:42:33;24.02;58.77
18361;SHT31;9308;48.550;9.108;2023-06-19T06:44:58;24.05;59.31
18361;SHT31;9308;48.550;9.108;2023-06-19T06:47:24;24.13;58.72
18361;SHT31;9308;48.550;9.108;2023-06-19T06:49:49;24.04;58.65
18361;SHT31;9308;48.550;9.108;2023-06-19T06:52:15;24.05;58.52
18361;SHT31;9308;48.550;9.108;2023-06-19T06:54:41;24.22;58.05
18361;SHT31;9308;48.550;9.108;2023-06-19T06:57:06;24.19;58.07
18361;SHT31;9308;48.550;9.108;2023-06-19T06:59:31;24.35;58.11
18361;SHT31;9308;48.550;9.108;2023-06-19T07:01:57;24.57;57.91
18361;SHT31;9308;48.550;9.108;2023-06-19T07:04:23;24.52;57.95
18361;SHT31;9308;48.550;9.108;2023-06-19T07:06:48;24.61;57.54
18361;SHT31;9308;48.550;9.108;2023-06-19T07:09:14;24.83;57.91
18361;SHT31;9308;48.550;9.108;2023-06-19T07:11:40;24.87;58.36
18361;SHT31;9308;48.550;9.108;2023-06-19T07:14:06;25.00;58.90
18361;SHT31;9308;48.550;9.108;2023-06-19T07:16:31;24.94;57.74
18361;SHT31;9308;48.550;9.108;2023-06-19T07:18:57;25.03;57.06
18361;SHT31;9308;48.550;9.108;2023-06-19T07:21:22;25.26;57.26
18361;SHT31;9308;48.550;9.108;2023-06-19T07:23:48;25.14;57.13
18361;SHT31;9308;48.550;9.108;2023-06-19T07:26:14;25.16;57.24
18361;SHT31;9308;48.550;9.108;2023-06-19T07:28:40;25.14;57.04
18361;SHT31;9308;48.550;9.108;2023-06-19T07:31:05;24.98;57.55
18361;SHT31;9308;48.550;9.108;2023-06-19T07:33:31;24.78;59.40
18361;SHT31;9308;48.550;9.108;2023-06-19T07:35:56;24.64;58.21
18361;SHT31;9308;48.550;9.108;2023-06-19T07:38:22;24.90;57.96
18361;SHT31;9308;48.550;9.108;2023-06-19T07:40:48;24.93;57.25
18361;SHT31;9308;48.550;9.108;2023-06-19T07:43:13;25.24;56.13
18361;SHT31;9308;48.550;9.108;2023-06-19T07:45:39;25.91;54.73
18361;SHT31;9308;48.550;9.108;2023-06-19T07:48:04;26.60;54.42
18361;SHT31;9308;48.550;9.108;2023-06-19T07:50:30;26.59;53.20
18361;SHT31;9308;48.550;9.108;2023-06-19T07:52:57;26.80;52.11
18361;SHT31;9308;48.550;9.108;2023-06-19T07:55:22;26.74;52.68
18361;SHT31;9308;48.550;9.108;2023-06-19T07:57:48;26.67;53.74
18361;SHT31;9308;48.550;9.108;2023-06-19T08:00:13;26.76;52.85
18361;SHT31;9308;48.550;9.108;2023-06-19T08:02:40;26.84;53.56
18361;SHT31;9308;48.550;9.108;2023-06-19T08:05:10;26.60;53.16
18361;SHT31;9308;48.550;9.108;2023-06-19T08:07:35;26.60;53.30
18361;SHT31;9308;48.550;9.108;2023-06-19T08:10:02;27.00;52.50
18361;SHT31;9308;48.550;9.108;2023-06-19T08:12:29;27.15;52.34
18361;SHT31;9308;48.550;9.108;2023-06-19T08:14:55;26.97;51.98
18361;SHT31;9308;48.550;9.108;2023-06-19T08:17:20;27.29;52.18
18361;SHT31;9308;48.550;9.108;2023-06-19T08:19:46;27.24;52.17
18361;SHT31;9308;48.550;9.108;2023-06-19T08:22:11;27.49;51.63
18361;SHT31;9308;48.550;9.108;2023-06-19T08:24:37;27.39;51.58
18361;SHT31;9308;48.550;9.108;2023-06-19T08:27:05;27.65;51.62
18361;SHT31;9308;48.550;9.108;2023-06-19T08:29:30;27.58;51.31
18361;SHT31;9308;48.550;9.108;2023-06-19T08:31:56;27.75;50.43
18361;SHT31;9308;48.550;9.108;2023-06-19T08:34:21;27.62;50.46
18361;SHT31;9308;48.550;9.108;2023-06-19T08:36:47;27.32;50.72
18361;SHT31;9308;48.550;9.108;2023-06-19T08:39:12;27.63;50.49
18361;SHT31;9308;48.550;9.108;2023-06-19T08:41:38;27.65;49.91
18361;SHT31;9308;48.550;9.108;2023-06-19T08:44:05;27.83;51.02
18361;SHT31;9308;48.550;9.108;2023-06-19T08:46:30;27.75;50.75
18361;SHT31;9308;48.550;9.108;2023-06-19T08:48:56;28.16;49.01
18361;SHT31;9308;48.550;9.108;2023-06-19T08:51:22;28.17;49.37
18361;SHT31;9308;48.550;9.108;2023-06-19T08:53:53;28.90;48.04
18361;SHT31;9308;48.550;9.108;2023-06-19T08:56:20;29.27;48.46
18361;SHT31;9308;48.550;9.108;2023-06-19T08:58:45;29.65;46.44
18361;SHT31;9308;48.550;9.108;2023-06-19T09:01:13;29.57;42.73
18361;SHT31;9308;48.550;9.108;2023-06-19T09:03:38;29.16;43.11
18361;SHT31;9308;48.550;9.108;2023-06-19T09:06:06;28.97;43.46
18361;SHT31;9308;48.550;9.108;2023-06-19T09:08:32;29.07;43.94
18361;SHT31;9308;48.550;9.108;2023-06-19T09:10:59;29.11;42.16
18361;SHT31;9308;48.550;9.108;2023-06-19T09:13:25;29.65;42.79
18361;SHT31;9308;48.550;9.108;2023-06-19T09:16:01;29.73;42.52
18361;SHT31;9308;48.550;9.108;2023-06-19T09:18:29;29.55;43.65
18361;SHT31;9308;48.550;9.108;2023-06-19T09:20:56;29.71;43.09
18361;SHT31;9308;48.550;9.108;2023-06-19T09:23:21;29.45;42.19
18361;SHT31;9308;48.550;9.108;2023-06-19T09:25:48;29.31;41.24
18361;SHT31;9308;48.550;9.108;2023-06-19T09:28:25;29.37;41.35
18361;SHT31;9308;48.550;9.108;2023-06-19T09:30:56;29.45;41.86
18361;SHT31;9308;48.550;9.108;2023-06-19T09:33:31;29.37;40.83
18361;SHT31;9308;48.550;9.108;2023-06-19T09:35:59;29.47;41.29
18361;SHT31;9308;48.550;9.108;2023-06-19T09:38:29;29.17;41.86
18361;SHT31;9308;48.550;9.108;2023-06-19T09:40:56;29.40;42.75
18361;SHT31;9308;48.550;9.108;2023-06-19T09:43:49;29.78;42.62
18361;SHT31;9308;48.550;9.108;2023-06-19T09:46:17;29.84;43.57
18361;SHT31;9308;48.550;9.108;2023-06-19T09:48:45;29.73;42.50
18361;SHT31;9308;48.550;9.108;2023-06-19T09:51:23;29.54;43.21
18361;SHT31;9308;48.550;9.108;2023-06-19T09:53:53;29.22;43.58
18361;SHT31;9308;48.550;9.108;2023-06-19T09:56:19;29.48;44.14
18361;SHT31;9308;48.550;9.108;2023-06-19T09:58:48;29.79;43.78
18361;SHT31;9308;48.550;9.108;2023-06-19T10:01:16;29.89;43.62
18361;SHT31;9308;48.550;9.108;2023-06-19T10:03:44;30.09;43.18
18361;SHT31;9308;48.550;9.108;2023-06-19T10:06:14;30.36;43.67
18361;SHT31;9308;48.550;9.108;2023-06-19T10:08:41;30.54;42.05
18361;SHT31;9308;48.550;9.108;2023-06-19T10:11:07;30.46;41.18
18361;SHT31;9308;48.550;9.108;2023-06-19T10:13:35;30.63;41.34
18361;SHT31;9308;48.550;9.108;2023-06-19T10:16:02;30.68;40.28
18361;SHT31;9308;48.550;9.108;2023-06-19T10:18:27;31.10;41.10
18361;SHT31;9308;48.550;9.108;2023-06-19T10:20:54;30.98;40.67
18361;SHT31;9308;48.550;9.108;2023-06-19T10:23:22;31.44;41.23
18361;SHT31;9308;48.550;9.108;2023-06-19T10:25:58;31.85;39.90
18361;SHT31;9308;48.550;9.108;2023-06-19T10:28:28;31.37;39.77
18361;SHT31;9308;48.550;9.108;2023-06-19T10:31:07;31.85;39.03
18361;SHT31;9308;48.550;9.108;2023-06-19T10:33:36;32.26;38.79
18361;SHT31;9308;48.550;9.108;2023-06-19T10:36:16;32.15;38.65
18361;SHT31;9308;48.550;9.108;2023-06-19T10:38:41;32.40;38.94
18361;SHT31;9308;48.550;9.108;2023-06-19T10:41:16;32.78;38.32
18361;SHT31;9308;48.550;9.108;2023-06-19T10:43:41;32.88;38.06
18361;SHT31;9308;48.550;9.108;2023-06-19T10:46:07;32.91;37.42
18361;SHT31;9308;48.550;9.108;2023-06-19T10:48:32;32.77;37.27
18361;SHT31;9308;48.550;9.108;2023-06-19T10:50:57;32.90;37.41
18361;SHT31;9308;48.550;9.108;2023-06-19T10:53:31;33.24;38.99
18361;SHT31;9308;48.550;9.108;2023-06-19T10:55:58;33.43;36.76
18361;SHT31;9308;48.550;9.108;2023-06-19T10:58:25;33.76;36.80
18361;SHT31;9308;48.550;9.108;2023-06-19T11:00:50;33.97;36.37
18361;SHT31;9308;48.550;9.108;2023-06-19T11:03:16;34.24;35.82
18361;SHT31;9308;48.550;9.108;2023-06-19T11:05:44;33.87;35.67
18361;SHT31;9308;48.550;9.108;2023-06-19T11:08:09;34.29;37.91
18361;SHT31;9308;48.550;9.108;2023-06-19T11:10:35;34.08;36.08
18361;SHT31;9308;48.550;9.108;2023-06-19T11:13:00;33.76;35.10
18361;SHT31;9308;48.550;9.108;2023-06-19T11:15:33;34.44;36.34
18361;SHT31;9308;48.550;9.108;2023-06-19T11:18:00;34.52;34.20
18361;SHT31;9308;48.550;9.108;2023-06-19T11:20:26;34.51;32.69
18361;SHT31;9308;48.550;9.108;2023-06-19T11:22:56;33.93;34.35
18361;SHT31;9308;48.550;9.108;2023-06-19T11:25:22;34.52;32.92
18361;SHT31;9308;48.550;9.108;2023-06-19T11:27:48;34.78;32.17
18361;SHT31;9308;48.550;9.108;2023-06-19T11:30:18;34.97;32.73
18361;SHT31;9308;48.550;9.108;2023-06-19T11:32:46;35.07;32.85
18361;SHT31;9308;48.550;9.108;2023-06-19T11:35:15;34.76;32.70
18361;SHT31;9308;48.550;9.108;2023-06-19T11:37:43;34.44;34.24
18361;SHT31;9308;48.550;9.108;2023-06-19T11:40:09;34.24;33.70
18361;SHT31;9308;48.550;9.108;2023-06-19T11:42:51;34.24;34.46
18361;SHT31;9308;48.550;9.108;2023-06-19T11:45:16;34.59;34.25
18361;SHT31;9308;48.550;9.108;2023-06-19T11:47:46;34.53;33.35
18361;SHT31;9308;48.550;9.108;2023-06-19T11:50:13;34.69;34.65
18361;SHT31;9308;48.550;9.108;2023-06-19T11:52:39;34.18;33.26
18361;SHT31;9308;48.550;9.108;2023-06-19T11:55:05;34.20;32.81
18361;SHT31;9308;48.550;9.108;2023-06-19T11:57:30;33.74;33.44
18361;SHT31;9308;48.550;9.108;2023-06-19T11:59:57;34.14;34.66
18361;SHT31;9308;48.550;9.108;2023-06-19T12:02:22;34.21;35.36
18361;SHT31;9308;48.550;9.108;2023-06-19T12:04:48;34.15;33.80
18361;SHT31;9308;48.550;9.108;2023-06-19T12:07:13;34.20;33.79
18361;SHT31;9308;48.550;9.108;2023-06-19T12:09:41;34.59;34.80
18361;SHT31;9308;48.550;9.108;2023-06-19T12:12:08;34.59;34.73
18361;SHT31;9308;48.550;9.108;2023-06-19T12:14:34;34.13;32.96
18361;SHT31;9308;48.550;9.108;2023-06-19T12:16:59;34.40;34.26
18361;SHT31;9308;48.550;9.108;2023-06-19T12:19:26;34.95;34.87
18361;SHT31;9308;48.550;9.108;2023-06-19T12:21:53;34.99;33.64
18361;SHT31;9308;48.550;9.108;2023-06-19T12:24:18;35.20;32.98
18361;SHT31;9308;48.550;9.108;2023-06-19T12:26:44;35.30;33.91
18361;SHT31;9308;48.550;9.108;2023-06-19T12:29:10;34.59;32.18
18361;SHT31;9308;48.550;9.108;2023-06-19T12:31:35;34.38;32.40
18361;SHT31;9308;48.550;9.108;2023-06-19T12:34:02;34.82;31.96
18361;SHT31;9308;48.550;9.108;2023-06-19T12:36:28;34.99;32.99
18361;SHT31;9308;48.550;9.108;2023-06-19T12:38:53;34.76;33.71
18361;SHT31;9308;48.550;9.108;2023-06-19T12:41:22;34.66;33.39
18361;SHT31;9308;48.550;9.108;2023-06-19T12:43:48;35.17;33.39
18361;SHT31;9308;48.550;9.108;2023-06-19T12:46:14;33.92;33.30
18361;SHT31;9308;48.550;9.108;2023-06-19T12:48:41;34.18;34.14
18361;SHT31;9308;48.550;9.108;2023-06-19T12:51:06;34.45;33.87
18361;SHT31;9308;48.550;9.108;2023-06-19T12:53:31;34.49;33.47
18361;SHT31;9308;48.550;9.108;2023-06-19T12:55:57;34.45;33.23
18361;SHT31;9308;48.550;9.108;2023-06-19T12:58:24;34.20;33.20
18361;SHT31;9308;48.550;9.108;2023-06-19T13:00:49;34.23;34.64
18361;SHT31;9308;48.550;9.108;2023-06-19T13:03:15;34.62;34.95
18361;SHT31;9308;48.550;9.108;2023-06-19T13:05:40;34.78;33.85
18361;SHT31;9308;48.550;9.108;2023-06-19T13:08:05;35.04;33.09
18361;SHT31;9308;48.550;9.108;2023-06-19T13:10:31;34.93;32.87
18361;SHT31;9308;48.550;9.108;2023-06-19T13:12:56;34.89;31.80
18361;SHT31;9308;48.550;9.108;2023-06-19T13:15:24;34.88;32.71
18361;SHT31;9308;48.550;9.108;2023-06-19T13:17:49;34.59;32.94
18361;SHT31;9308;48.550;9.108;2023-06-19T13:20:14;34.37;33.62
18361;SHT31;9308;48.550;9.108;2023-06-19T13:22:41;33.96;33.14
18361;SHT31;9308;48.550;9.108;2023-06-19T13:25:07;34.31;34.23
18361;SHT31;9308;48.550;9.108;2023-06-19T13:27:32;34.15;32.75
18361;SHT31;9308;48.550;9.108;2023-06-19T13:29:59;34.51;32.14
18361;SHT31;9308;48.550;9.108;2023-06-19T13:32:25;34.59;32.28
18361;SHT31;9308;48.550;9.108;2023-06-19T13:34:50;34.47;32.29
18361;SHT31;9308;48.550;9.108;2023-06-19T13:37:16;34.24;31.85
18361;SHT31;9308;48.550;9.108;2023-06-19T13:39:41;33.79;32.51
18361;SHT31;9308;48.550;9.108;2023-06-19T13:42:07;33.96;31.42
18361;SHT31;9308;48.550;9.108;2023-06-19T13:44:32;33.73;32.36
18361;SHT31;9308;48.550;9.108;2023-06-19T13:46:58;33.87;32.25
18361;SHT31;9308;48.550;9.108;2023-06-19T13:49:23;34.01;32.98
18361;SHT31;9308;48.550;9.108;2023-06-19T13:51:49;33.45;32.35
18361;SHT31;9308;48.550;9.108;2023-06-19T13:54:14;33.87;33.41
18361;SHT31;9308;48.550;9.108;2023-06-19T13:56:40;34.04;33.93
18361;SHT31;9308;48.550;9.108;2023-06-19T13:59:06;33.86;33.04
18361;SHT31;9308;48.550;9.108;2023-06-19T14:01:32;34.14;32.29
18361;SHT31;9308;48.550;9.108;2023-06-19T14:03:57;34.01;32.50
18361;SHT31;9308;48.550;9.108;2023-06-19T14:06:24;34.62;33.11
18361;SHT31;9308;48.550;9.108;2023-06-19T14:08:50;34.47;32.24
18361;SHT31;9308;48.550;9.108;2023-06-19T14:11:16;34.49;32.72
18361;SHT31;9308;48.550;9.108;2023-06-19T14:13:41;33.94;33.72
18361;SHT31;9308;48.550;9.108;2023-06-19T14:16:07;34.31;32.43
18361;SHT31;9308;48.550;9.108;2023-06-19T14:18:33;33.93;32.06
18361;SHT31;9308;48.550;9.108;2023-06-19T14:20:58;34.00;33.33
18361;SHT31;9308;48.550;9.108;2023-06-19T14:23:24;34.44;32.82
18361;SHT31;9308;48.550;9.108;2023-06-19T14:25:49;34.31;33.17
18361;SHT31;9308;48.550;9.108;2023-06-19T14:28:16;34.23;33.94
18361;SHT31;9308;48.550;9.108;2023-06-19T14:30:41;34.21;32.53
18361;SHT31;9308;48.550;9.108;2023-06-19T14:33:07;34.04;32.61
18361;SHT31;9308;48.550;9.108;2023-06-19T14:35:35;34.23;33.12
18361;SHT31;9308;48.550;9.108;2023-06-19T14:38:01;33.97;34.54
18361;SHT31;9308;48.550;9.108;2023-06-19T14:40:26;33.62;32.55
18361;SHT31;9308;48.550;9.108;2023-06-19T14:42:51;33.18;33.85
18361;SHT31;9308;48.550;9.108;2023-06-19T14:45:17;32.95;34.18
18361;SHT31;9308;48.550;9.108;2023-06-19T14:47:42;33.07;34.05
18361;SHT31;9308;48.550;9.108;2023-06-19T14:50:08;33.10;34.84
18361;SHT31;9308;48.550;9.108;2023-06-19T14:52:33;32.83;35.42
18361;SHT31;9308;48.550;9.108;2023-06-19T14:54:59;32.95;34.74
18361;SHT31;9308;48.550;9.108;2023-06-19T14:57:25;32.63;34.59
18361;SHT31;9308;48.550;9.108;2023-06-19T14:59:51;33.07;35.34
18361;SHT31;9308;48.550;9.108;2023-06-19T15:02:16;33.08;35.12
18361;SHT31;9308;48.550;9.108;2023-06-19T15:04:42;33.18;35.24
18361;SHT31;9308;48.550;9.108;2023-06-19T15:07:07;33.48;35.29
18361;SHT31;9308;48.550;9.108;2023-06-19T15:09:32;33.22;34.60
18361;SHT31;9308;48.550;9.108;2023-06-19T15:11:58;33.14;35.46
18361;SHT31;9308;48.550;9.108;2023-06-19T15:14:24;32.61;35.13
18361;SHT31;9308;48.550;9.108;2023-06-19T15:16:49;32.48;35.84
18361;SHT31;9308;48.550;9.108;2023-06-19T15:19:15;32.37;36.00
18361;SHT31;9308;48.550;9.108;2023-06-19T15:21:41;31.99;36.45
18361;SHT31;9308;48.550;9.108;2023-06-19T15:24:07;31.78;35.74
18361;SHT31;9308;48.550;9.108;2023-06-19T15:26:34;31.70;37.88
18361;SHT31;9308;48.550;9.108;2023-06-19T15:28:59;31.78;38.96
18361;SHT31;9308;48.550;9.108;2023-06-19T15:31:25;31.64;40.12
18361;SHT31;9308;48.550;9.108;2023-06-19T15:33:51;31.75;41.60
18361;SHT31;9308;48.550;9.108;2023-06-19T15:36:16;31.82;41.36
18361;SHT31;9308;48.550;9.108;2023-06-19T15:38:42;32.59;40.17
18361;SHT31;9308;48.550;9.108;2023-06-19T15:41:08;32.40;38.88